This is the latest recevied weather packets stored in our database for station/object 7L2IWN-13. If no packets are shown the sender has not sent any weather packets the latest 10 day(s).
| Time | Temp. | Humidity | Pressure | Rain* | Wind** | Luminosity | Snow |
|---|---|---|---|---|---|---|---|
| 1777327822 | 11.67° C | 82% | 1011.6 hPa | 0 mm | - | - | - |
| 1777327102 | 10.56° C | 88% | 1011.4 hPa | 0 mm | - | - | - |
| 1777326381 | 10° C | 91% | 1011.6 hPa | 0 mm | - | - | - |
| 1777325661 | 9.44° C | 96% | 1011.9 hPa | 0 mm | - | - | - |
| 1777324941 | 8.33° C | 97% | 1011.5 hPa | 0 mm | - | - | - |
| 1777324222 | 7.78° C | 99% | 1011.4 hPa | 0 mm | - | - | - |
| 1777323501 | 7.22° C | 99% | 1011.2 hPa | 0 mm | - | - | - |
| 1777322781 | 6.67° C | 99% | 1011.3 hPa | 0 mm | - | - | - |
| 1777322062 | 6.67° C | 99% | 1011.3 hPa | 0 mm | - | - | - |
| 1777321344 | 6.11° C | 99% | 1010.9 hPa | 0 mm | - | - | - |
| 1777320621 | 6.11° C | 99% | 1011.1 hPa | 0 mm | - | - | - |
| 1777319901 | 6.11° C | 99% | 1010.8 hPa | 0 mm | - | - | - |
| 1777319182 | 6.67° C | 99% | 1010.9 hPa | 0 mm | - | - | - |
| 1777318463 | 6.67° C | 99% | 1010.8 hPa | 0 mm | - | - | - |
| 1777317741 | 6.67° C | 99% | 1010.6 hPa | 0 mm | - | - | - |
| 1777317021 | 6.67° C | 99% | 1010.4 hPa | 0 mm | - | - | - |
| 1777316300 | 6.67° C | 99% | 1010.3 hPa | 0 mm | - | - | - |
| 1777315581 | 6.67° C | 99% | 1010.5 hPa | 0 mm | - | - | - |
| 1777314862 | 7.22° C | 99% | 1010.2 hPa | 0 mm | - | - | - |
| 1777314141 | 6.67° C | 99% | 1010.4 hPa | 0 mm | - | - | - |
| 1777313421 | 7.22° C | 99% | 1010.2 hPa | 0 mm | - | - | - |
| 1777312701 | 7.22° C | 99% | 1010.2 hPa | 0 mm | - | - | - |
| 1777311982 | 7.22° C | 99% | 1010.1 hPa | 0 mm | - | - | - |
| 1777311262 | 7.22° C | 99% | 1009.7 hPa | 0 mm | - | - | - |
| 1777310541 | 7.78° C | 99% | 1009.7 hPa | 0 mm | - | - | - |
* Rain latest hour (hover to see other rain measurements)
** Current wind speed in m/s (hover to see current wind gust speed)